createdAt,value
2023-03-28T00:01:39.017Z,0
2023-03-28T00:03:19.629Z,0
2023-03-28T00:04:59.807Z,0
2023-03-28T00:06:40.206Z,0
2023-03-28T00:08:20.569Z,0
2023-03-28T00:10:00.989Z,0
2023-03-28T00:11:41.173Z,0
2023-03-28T00:13:21.501Z,0
2023-03-28T00:15:01.947Z,0
2023-03-28T00:16:42.339Z,0
2023-03-28T00:18:22.772Z,0
2023-03-28T00:20:03.169Z,0
2023-03-28T00:21:43.653Z,0
2023-03-28T00:23:23.980Z,0
2023-03-28T00:25:04.362Z,0
2023-03-28T00:26:44.725Z,0
2023-03-28T00:28:25.146Z,0
2023-03-28T00:30:05.542Z,0
2023-03-28T00:31:46.079Z,0
2023-03-28T00:33:26.341Z,0
2023-03-28T00:35:06.743Z,0
2023-03-28T00:36:47.220Z,0
2023-03-28T00:38:27.552Z,0
2023-03-28T00:40:07.968Z,0
2023-03-28T00:41:49.525Z,0
2023-03-28T00:43:28.726Z,0
2023-03-28T00:45:09.081Z,0
2023-03-28T00:46:49.526Z,0
2023-03-28T00:48:29.731Z,0
2023-03-28T00:50:10.031Z,0
2023-03-28T00:51:50.355Z,0
2023-03-28T00:53:30.663Z,0
2023-03-28T00:55:10.946Z,0
2023-03-28T00:56:51.311Z,0
2023-03-28T00:58:31.700Z,0
2023-03-28T01:00:12.089Z,0
2023-03-28T01:01:52.588Z,0
2023-03-28T01:03:32.877Z,0
2023-03-28T01:05:13.246Z,0
2023-03-28T01:06:53.521Z,0
2023-03-28T01:08:33.902Z,0
2023-03-28T01:10:14.208Z,0
2023-03-28T01:11:54.518Z,0
2023-03-28T01:13:34.987Z,0
2023-03-28T01:15:15.376Z,0
2023-03-28T01:16:55.776Z,0
2023-03-28T01:18:36.202Z,0
2023-03-28T01:20:16.546Z,0
2023-03-28T01:21:56.909Z,0
2023-03-28T01:23:37.295Z,0
2023-03-28T01:25:17.718Z,0
2023-03-28T01:26:58.061Z,0
2023-03-28T01:28:38.435Z,0
2023-03-28T01:30:18.758Z,0
2023-03-28T01:31:59.227Z,0
2023-03-28T01:33:39.599Z,0
2023-03-28T01:35:19.959Z,0
2023-03-28T01:37:00.304Z,0
2023-03-28T01:38:40.703Z,0
2023-03-28T01:40:21.117Z,0
2023-03-28T01:42:01.526Z,0
2023-03-28T01:43:41.829Z,0
2023-03-28T01:45:22.285Z,0
2023-03-28T01:47:02.643Z,0
2023-03-28T01:48:42.967Z,0
2023-03-28T01:50:23.429Z,0
2023-03-28T01:52:03.825Z,0
2023-03-28T01:53:44.225Z,0
2023-03-28T01:55:24.584Z,0
2023-03-28T01:57:05.135Z,0
2023-03-28T01:58:45.505Z,0
2023-03-28T02:00:25.953Z,0
2023-03-28T02:02:06.353Z,0
2023-03-28T02:03:46.688Z,0
2023-03-28T02:05:27.068Z,0
2023-03-28T02:07:07.439Z,0
2023-03-28T02:08:47.833Z,0
2023-03-28T02:10:28.254Z,0
2023-03-28T02:12:08.697Z,0
2023-03-28T02:13:49.070Z,0
2023-03-28T02:15:29.432Z,0
2023-03-28T02:17:09.815Z,0
2023-03-28T02:18:50.143Z,0
2023-03-28T02:20:30.451Z,0
2023-03-28T02:22:10.826Z,0
2023-03-28T02:23:51.247Z,0
2023-03-28T02:25:31.616Z,0
2023-03-28T02:27:12.107Z,0
2023-03-28T02:28:52.590Z,0
2023-03-28T02:30:33.025Z,0
2023-03-28T02:32:13.384Z,0
2023-03-28T02:33:53.842Z,0
2023-03-28T02:35:34.211Z,0
2023-03-28T02:37:14.577Z,0
2023-03-28T02:38:54.935Z,0
2023-03-28T02:40:35.374Z,0
2023-03-28T02:42:15.756Z,0
2023-03-28T02:43:56.198Z,0
2023-03-28T02:45:36.614Z,0
2023-03-28T02:47:17.008Z,0
2023-03-28T02:48:57.418Z,0
2023-03-28T02:50:37.861Z,0
2023-03-28T02:52:18.165Z,0
2023-03-28T02:53:58.445Z,0
2023-03-28T02:55:38.711Z,0
2023-03-28T02:57:19.053Z,0
2023-03-28T02:58:59.357Z,0
2023-03-28T03:00:39.676Z,0
2023-03-28T03:02:19.960Z,0
2023-03-28T03:04:00.283Z,0
2023-03-28T03:05:40.530Z,0
2023-03-28T03:07:20.846Z,0
2023-03-28T03:09:01.149Z,0
2023-03-28T03:10:41.444Z,0
2023-03-28T03:12:21.743Z,0
2023-03-28T03:14:02.092Z,0
2023-03-28T03:15:42.576Z,0
2023-03-28T03:17:22.865Z,0
2023-03-28T03:19:03.321Z,0
2023-03-28T03:20:43.754Z,0
2023-03-28T03:22:24.147Z,0
2023-03-28T03:24:04.488Z,0
2023-03-28T03:25:44.838Z,0
2023-03-28T03:27:25.140Z,0
2023-03-28T03:29:05.551Z,0
2023-03-28T03:30:45.961Z,0
2023-03-28T03:32:26.184Z,0
2023-03-28T03:34:06.604Z,0
2023-03-28T03:35:47.023Z,0
2023-03-28T03:37:27.418Z,0
2023-03-28T03:39:07.838Z,0
2023-03-28T03:40:48.170Z,0
2023-03-28T03:42:28.544Z,0
2023-03-28T03:44:08.994Z,0
2023-03-28T03:45:49.416Z,0
2023-03-28T03:47:29.767Z,0
2023-03-28T03:49:10.154Z,0
2023-03-28T03:50:50.556Z,0
2023-03-28T03:52:30.915Z,0
2023-03-28T03:54:11.232Z,0
2023-03-28T03:55:51.702Z,0
2023-03-28T03:57:32.150Z,0
2023-03-28T03:59:12.627Z,0
2023-03-28T04:00:53.053Z,0
2023-03-28T04:02:33.544Z,0
2023-03-28T04:04:13.781Z,0
2023-03-28T04:05:54.340Z,0
2023-03-28T04:07:34.700Z,0
2023-03-28T04:09:15.164Z,0
2023-03-28T04:10:55.464Z,0
2023-03-28T04:12:35.807Z,0
2023-03-28T04:14:16.186Z,0
2023-03-28T04:15:56.768Z,0
2023-03-28T04:17:36.981Z,0
2023-03-28T04:19:17.387Z,0
2023-03-28T04:20:57.714Z,0
2023-03-28T04:22:45.289Z,0
2023-03-28T04:24:18.615Z,0
2023-03-28T04:25:59.152Z,1
2023-03-28T04:27:39.440Z,0
2023-03-28T04:29:19.817Z,1
2023-03-28T04:31:00.369Z,1
2023-03-28T04:32:40.723Z,1
2023-03-28T04:34:21.201Z,2
2023-03-28T04:36:01.845Z,2
2023-03-28T04:37:41.916Z,4
2023-03-28T04:39:22.297Z,4
2023-03-28T04:41:02.651Z,7
2023-03-28T04:42:43.047Z,8
2023-03-28T04:44:23.493Z,12
2023-03-28T04:46:03.989Z,16
2023-03-28T04:47:44.290Z,22
2023-03-28T04:49:24.759Z,30
2023-03-28T04:51:05.137Z,39
2023-03-28T04:52:45.471Z,52
2023-03-28T04:54:25.928Z,66
2023-03-28T04:56:06.280Z,82
2023-03-28T04:57:46.625Z,99
2023-03-28T04:59:26.933Z,124
2023-03-28T05:01:07.426Z,157
2023-03-28T05:02:47.969Z,184
2023-03-28T05:04:28.036Z,211
2023-03-28T05:06:08.422Z,251
2023-03-28T05:07:48.882Z,293
2023-03-28T05:09:29.225Z,332
2023-03-28T05:11:09.623Z,383
2023-03-28T05:12:50.009Z,439
2023-03-28T05:14:30.381Z,525
2023-03-28T05:16:10.825Z,622
2023-03-28T05:17:51.176Z,704
2023-03-28T05:19:31.599Z,755
2023-03-28T05:21:12.187Z,823
2023-03-28T05:22:52.479Z,896
2023-03-28T05:24:33.721Z,971
2023-03-28T05:26:13.071Z,1086
2023-03-28T05:27:53.415Z,1216
2023-03-28T05:29:33.736Z,1241
2023-03-28T05:31:14.147Z,1185
2023-03-28T05:32:54.581Z,1164
2023-03-28T05:34:34.926Z,1265
2023-03-28T05:36:15.385Z,1394
2023-03-28T05:37:55.709Z,1446
2023-03-28T05:39:36.149Z,1687
2023-03-28T05:41:16.565Z,2021
2023-03-28T05:42:56.906Z,2466
2023-03-28T05:44:37.297Z,2816
2023-03-28T05:46:17.737Z,2945
2023-03-28T05:47:58.087Z,2895
2023-03-28T05:49:38.461Z,2636
2023-03-28T05:51:18.854Z,2551
2023-03-28T05:52:59.279Z,2650
2023-03-28T05:54:39.776Z,2775
2023-03-28T05:56:20.196Z,2942
2023-03-28T05:58:00.544Z,3114
2023-03-28T05:59:40.964Z,3451
2023-03-28T06:01:21.322Z,3192
2023-03-28T06:03:01.905Z,2981
2023-03-28T06:04:42.161Z,3207
2023-03-28T06:06:22.484Z,3492
2023-03-28T06:08:02.867Z,3615
2023-03-28T06:09:43.223Z,3801
2023-03-28T06:11:23.578Z,4353
2023-03-28T06:13:03.981Z,4851
2023-03-28T06:14:44.411Z,5430
2023-03-28T06:16:30.486Z,5857
2023-03-28T06:18:04.980Z,6046
2023-03-28T06:19:45.300Z,6591
2023-03-28T06:21:25.555Z,7288
2023-03-28T06:23:05.947Z,7469
2023-03-28T06:24:46.283Z,7468
2023-03-28T06:26:26.669Z,7269
2023-03-28T06:28:07.069Z,6556
2023-03-28T06:29:47.423Z,6460
2023-03-28T06:31:27.943Z,6765
2023-03-28T06:33:08.280Z,7005
2023-03-28T06:34:48.686Z,7147
2023-03-28T06:36:29.015Z,7713
2023-03-28T06:38:09.452Z,8166
2023-03-28T06:39:49.962Z,8322
2023-03-28T06:41:30.336Z,9125
2023-03-28T06:43:10.695Z,10091
2023-03-28T06:44:51.136Z,9640
2023-03-28T06:46:31.606Z,9959
2023-03-28T06:48:11.977Z,10724
2023-03-28T06:49:52.426Z,11045
2023-03-28T06:51:32.807Z,11085
2023-03-28T06:53:13.224Z,11479
2023-03-28T06:54:53.547Z,12082
2023-03-28T06:56:33.859Z,11506
2023-03-28T06:58:14.179Z,11181
2023-03-28T06:59:54.490Z,11304
2023-03-28T07:01:34.941Z,10213
2023-03-28T07:03:15.457Z,10522
2023-03-28T07:04:55.812Z,10525
2023-03-28T07:06:36.268Z,11770
2023-03-28T07:08:16.623Z,11744
2023-03-28T07:09:57.005Z,11208
2023-03-28T07:11:37.385Z,10706
2023-03-28T07:13:17.728Z,10138
2023-03-28T07:14:58.110Z,10522
2023-03-28T07:16:38.493Z,11038
2023-03-28T07:18:18.885Z,12157
2023-03-28T07:19:59.328Z,12122
2023-03-28T07:21:39.744Z,10366
2023-03-28T07:23:20.052Z,10300
2023-03-28T07:25:00.350Z,9540
2023-03-28T07:26:40.725Z,10090
2023-03-28T07:28:21.210Z,10024
2023-03-28T07:30:01.546Z,10743
2023-03-28T07:31:41.847Z,11418
2023-03-28T07:33:29.789Z,12268
2023-03-28T07:35:02.576Z,13201
2023-03-28T07:36:42.960Z,14027
2023-03-28T07:38:23.323Z,14909
2023-03-28T07:40:03.714Z,15755
2023-03-28T07:41:44.105Z,16754
2023-03-28T07:43:24.454Z,15762
2023-03-28T07:45:04.892Z,14349
2023-03-28T07:46:45.266Z,13839
2023-03-28T07:48:25.601Z,14735
2023-03-28T07:50:05.943Z,22304
2023-03-28T07:51:46.456Z,17920
2023-03-28T07:53:26.905Z,18600
2023-03-28T07:55:07.364Z,16812
2023-03-28T07:56:47.884Z,30800
2023-03-28T07:58:28.169Z,27400
2023-03-28T08:00:08.584Z,22744
2023-03-28T08:01:49.011Z,49928
2023-03-28T08:03:29.468Z,46392
2023-03-28T08:05:09.792Z,57832
2023-03-28T08:06:50.163Z,53664
2023-03-28T08:08:30.522Z,23104
2023-03-28T08:10:10.828Z,33328
2023-03-28T08:11:51.190Z,35592
2023-03-28T08:13:31.446Z,52968
2023-03-28T08:15:11.776Z,24064
2023-03-28T08:16:52.214Z,25624
2023-03-28T08:18:32.581Z,32464
2023-03-28T08:20:12.952Z,22488
2023-03-28T08:21:53.294Z,61592
2023-03-28T08:23:33.634Z,49272
2023-03-28T08:25:14.017Z,22776
2023-03-28T08:26:54.515Z,57632
2023-03-28T08:28:34.992Z,31680
2023-03-28T08:30:15.297Z,13494
2023-03-28T08:31:55.809Z,41104
2023-03-28T08:33:36.022Z,57040
2023-03-28T08:35:16.378Z,65535
2023-03-28T08:36:56.699Z,56608
2023-03-28T08:38:37.052Z,23496
2023-03-28T08:40:17.473Z,46176
2023-03-28T08:41:57.824Z,59368
2023-03-28T08:43:38.235Z,63352
2023-03-28T08:45:18.589Z,50368
2023-03-28T08:46:58.929Z,56144
2023-03-28T08:48:39.257Z,19600
2023-03-28T08:50:19.706Z,63488
2023-03-28T08:52:00.130Z,49168
2023-03-28T08:53:40.505Z,49016
2023-03-28T08:55:20.926Z,24696
2023-03-28T08:57:01.308Z,58224
2023-03-28T08:58:41.659Z,58064
2023-03-28T09:00:22.076Z,53200
2023-03-28T09:02:02.552Z,31248
2023-03-28T09:03:42.924Z,31312
2023-03-28T09:05:24.071Z,37328
2023-03-28T09:07:03.646Z,61784
2023-03-28T09:08:44.099Z,29840
2023-03-28T09:10:24.581Z,35640
2023-03-28T09:12:04.875Z,17208
2023-03-28T09:13:45.137Z,28920
2023-03-28T09:15:25.449Z,43344
2023-03-28T09:17:05.934Z,39528
2023-03-28T09:18:46.268Z,26824
2023-03-28T09:20:26.707Z,38440
2023-03-28T09:22:15.199Z,60672
2023-03-28T09:23:47.653Z,65535
2023-03-28T09:25:27.869Z,56280
2023-03-28T09:27:08.245Z,62392
2023-03-28T09:28:48.629Z,44512
2023-03-28T09:30:28.992Z,46760
2023-03-28T09:32:09.447Z,61552
2023-03-28T09:33:49.785Z,65535
2023-03-28T09:35:30.092Z,60792
2023-03-28T09:37:10.487Z,51024
2023-03-28T09:38:50.859Z,52664
2023-03-28T09:40:31.256Z,60488
2023-03-28T09:42:11.665Z,26752
2023-03-28T09:43:52.042Z,25792
2023-03-28T09:45:32.610Z,27376
2023-03-28T09:47:12.818Z,65535
2023-03-28T09:48:53.362Z,32520
2023-03-28T09:50:33.601Z,36616
2023-03-28T09:52:14.012Z,19816
2023-03-28T09:53:54.488Z,17568
2023-03-28T09:55:35.725Z,17544
2023-03-28T09:57:15.367Z,20648
2023-03-28T09:58:55.804Z,51880
2023-03-28T10:00:36.200Z,24904
2023-03-28T10:02:16.544Z,25744
2023-03-28T10:03:56.964Z,28048
2023-03-28T10:05:37.384Z,30992
2023-03-28T10:07:17.789Z,65535
2023-03-28T10:08:58.155Z,65535
2023-03-28T10:10:38.554Z,19968
2023-03-28T10:12:18.921Z,20776
2023-03-28T10:13:59.385Z,22184
2023-03-28T10:15:39.860Z,35608
2023-03-28T10:17:20.124Z,35376
2023-03-28T10:19:00.555Z,65535
2023-03-28T10:20:40.890Z,65535
2023-03-28T10:22:21.254Z,65535
2023-03-28T10:24:01.685Z,65535
2023-03-28T10:25:42.095Z,65535
2023-03-28T10:27:22.423Z,65535
2023-03-28T10:29:04.488Z,60584
2023-03-28T10:30:43.194Z,45232
2023-03-28T10:32:23.434Z,63936
2023-03-28T10:34:03.717Z,65535
2023-03-28T10:35:44.053Z,65535
2023-03-28T10:37:24.323Z,65535
2023-03-28T10:39:04.601Z,31416
2023-03-28T10:40:44.988Z,35416
2023-03-28T10:42:25.390Z,65535
2023-03-28T10:44:05.821Z,65535
2023-03-28T10:45:46.387Z,65535
2023-03-28T10:47:26.607Z,65535
2023-03-28T10:49:06.973Z,65535
2023-03-28T10:50:47.285Z,65535
2023-03-28T10:52:27.672Z,35352
2023-03-28T10:54:08.034Z,37312
2023-03-28T10:55:48.427Z,65535
2023-03-28T10:57:28.836Z,65535
2023-03-28T10:59:09.112Z,31328
2023-03-28T11:00:49.476Z,65535
2023-03-28T11:02:29.862Z,65535
2023-03-28T11:04:10.249Z,65535
2023-03-28T11:06:05.734Z,65535
2023-03-28T11:07:31.182Z,64512
2023-03-28T11:09:11.412Z,65535
2023-03-28T11:10:51.850Z,20528
2023-03-28T11:12:35.960Z,24904
2023-03-28T11:14:12.632Z,30800
2023-03-28T11:15:52.998Z,33192
2023-03-28T11:17:33.515Z,24056
2023-03-28T11:19:13.815Z,28952
2023-03-28T11:20:54.167Z,65535
2023-03-28T11:22:34.500Z,65535
2023-03-28T11:24:14.799Z,65535
2023-03-28T11:25:55.219Z,65535
2023-03-28T11:27:35.668Z,65535
2023-03-28T11:29:16.116Z,65535
2023-03-28T11:30:56.509Z,29640
2023-03-28T11:32:37.000Z,27376
2023-03-28T11:34:17.396Z,29952
2023-03-28T11:35:57.865Z,65535
2023-03-28T11:37:38.167Z,65535
2023-03-28T11:39:18.551Z,65535
2023-03-28T11:40:59.173Z,65535
2023-03-28T11:42:39.371Z,38080
2023-03-28T11:44:19.840Z,27632
2023-03-28T11:46:00.272Z,28296
2023-03-28T11:47:40.713Z,30320
2023-03-28T11:49:21.035Z,65535
2023-03-28T11:51:01.559Z,28968
2023-03-28T11:52:41.782Z,26184
2023-03-28T11:54:22.142Z,24968
2023-03-28T11:56:02.546Z,26616
2023-03-28T11:57:42.804Z,29216
2023-03-28T11:59:23.108Z,29976
2023-03-28T12:01:03.903Z,27136
2023-03-28T12:02:43.778Z,23008
2023-03-28T12:04:24.038Z,24008
2023-03-28T12:06:05.531Z,26984
2023-03-28T12:07:44.579Z,30944
2023-03-28T12:09:24.872Z,65535
2023-03-28T12:11:05.198Z,33320
2023-03-28T12:12:45.481Z,38432
2023-03-28T12:14:25.783Z,65535
2023-03-28T12:16:06.068Z,36104
2023-03-28T12:17:46.482Z,35200
2023-03-28T12:19:26.798Z,50920
2023-03-28T12:21:07.209Z,65535
2023-03-28T12:22:47.597Z,60096
2023-03-28T12:24:27.906Z,55544
2023-03-28T12:26:08.283Z,44392
2023-03-28T12:27:48.670Z,40800
2023-03-28T12:29:29.118Z,38560
2023-03-28T12:31:09.501Z,33960
2023-03-28T12:32:49.829Z,36728
2023-03-28T12:34:30.290Z,35616
2023-03-28T12:36:10.806Z,38776
2023-03-28T12:37:51.488Z,38624
2023-03-28T12:39:31.560Z,41104
2023-03-28T12:41:11.938Z,55064
2023-03-28T12:42:52.313Z,65535
2023-03-28T12:44:32.759Z,65535
2023-03-28T12:46:13.207Z,62624
2023-03-28T12:47:53.647Z,54128
2023-03-28T12:49:34.076Z,42048
2023-03-28T12:51:14.379Z,48592
2023-03-28T12:52:54.686Z,45584
2023-03-28T12:54:34.990Z,43376
2023-03-28T12:56:15.280Z,53344
2023-03-28T12:57:55.604Z,62848
2023-03-28T12:59:35.890Z,64928
2023-03-28T13:01:16.330Z,65535
2023-03-28T13:02:56.635Z,65535
2023-03-28T13:04:36.947Z,35112
2023-03-28T13:06:17.337Z,31200
2023-03-28T13:07:57.731Z,30872
2023-03-28T13:09:38.055Z,33712
2023-03-28T13:11:18.415Z,50016
2023-03-28T13:12:58.791Z,54152
2023-03-28T13:14:39.332Z,55672
2023-03-28T13:16:19.693Z,55688
2023-03-28T13:18:00.005Z,54736
2023-03-28T13:19:40.432Z,58912
2023-03-28T13:21:20.742Z,51144
2023-03-28T13:23:01.114Z,50504
2023-03-28T13:24:41.605Z,61968
2023-03-28T13:26:21.967Z,36696
2023-03-28T13:28:02.331Z,36504
2023-03-28T13:29:42.677Z,35112
2023-03-28T13:31:23.276Z,45160
2023-03-28T13:33:03.614Z,33496
2023-03-28T13:34:43.897Z,39008
2023-03-28T13:36:24.418Z,65535
2023-03-28T13:38:04.736Z,51328
2023-03-28T13:39:45.095Z,31832
2023-03-28T13:41:25.384Z,34344
2023-03-28T13:43:05.719Z,65535
2023-03-28T13:44:46.023Z,65535
2023-03-28T13:46:26.420Z,61456
2023-03-28T13:48:13.066Z,65424
2023-03-28T13:49:47.163Z,65535
2023-03-28T13:51:27.701Z,28496
2023-03-28T13:53:07.973Z,48952
2023-03-28T13:54:48.430Z,51976
2023-03-28T13:56:28.780Z,35112
2023-03-28T13:58:09.118Z,59992
2023-03-28T13:59:49.576Z,44432
2023-03-28T14:01:30.074Z,46296
2023-03-28T14:03:10.410Z,53056
2023-03-28T14:04:50.769Z,41232
2023-03-28T14:06:31.279Z,39256
2023-03-28T14:08:11.690Z,44824
2023-03-28T14:09:52.009Z,42944
2023-03-28T14:11:32.499Z,38304
2023-03-28T14:13:12.918Z,45752
2023-03-28T14:14:53.245Z,50520
2023-03-28T14:16:33.665Z,45320
2023-03-28T14:18:13.942Z,46728
2023-03-28T14:19:54.312Z,49968
2023-03-28T14:21:34.657Z,45920
2023-03-28T14:23:15.073Z,39112
2023-03-28T14:24:55.379Z,36040
2023-03-28T14:26:35.717Z,35584
2023-03-28T14:28:16.103Z,34432
2023-03-28T14:29:56.504Z,38992
2023-03-28T14:31:37.084Z,37664
2023-03-28T14:33:17.336Z,31584
2023-03-28T14:34:57.746Z,33832
2023-03-28T14:36:38.164Z,39208
2023-03-28T14:38:18.469Z,39496
2023-03-28T14:39:58.916Z,36160
2023-03-28T14:41:39.317Z,36504
2023-03-28T14:43:19.702Z,30128
2023-03-28T14:45:00.097Z,27432
2023-03-28T14:46:40.523Z,30992
2023-03-28T14:48:20.822Z,31840
2023-03-28T14:50:01.338Z,29056
2023-03-28T14:51:41.703Z,27712
2023-03-28T14:53:22.088Z,24136
2023-03-28T14:55:02.441Z,22576
2023-03-28T14:56:42.864Z,20088
2023-03-28T14:58:23.208Z,20912
2023-03-28T15:00:03.592Z,24232
2023-03-28T15:01:44.083Z,24680
2023-03-28T15:03:24.524Z,24664
2023-03-28T15:05:04.807Z,22080
2023-03-28T15:06:45.212Z,22248
2023-03-28T15:08:25.638Z,23960
2023-03-28T15:10:06.024Z,23520
2023-03-28T15:11:49.614Z,24128
2023-03-28T15:13:26.890Z,24256
2023-03-28T15:15:07.325Z,26160
2023-03-28T15:16:47.742Z,25816
2023-03-28T15:18:28.073Z,27544
2023-03-28T15:20:08.437Z,27096
2023-03-28T15:21:48.878Z,26536
2023-03-28T15:23:29.230Z,26168
2023-03-28T15:25:09.615Z,31344
2023-03-28T15:26:50.072Z,34712
2023-03-28T15:28:30.551Z,31688
2023-03-28T15:30:14.037Z,26608
2023-03-28T15:31:51.284Z,28448
2023-03-28T15:33:31.572Z,29704
2023-03-28T15:35:12.668Z,25640
2023-03-28T15:36:52.349Z,24032
2023-03-28T15:38:32.626Z,23816
2023-03-28T15:40:12.928Z,23152
2023-03-28T15:41:53.208Z,24552
2023-03-28T15:43:33.493Z,24368
2023-03-28T15:45:13.812Z,24560
2023-03-28T15:46:54.128Z,25208
2023-03-28T15:48:34.415Z,21720
2023-03-28T15:50:14.689Z,25320
2023-03-28T15:51:54.995Z,22080
2023-03-28T15:53:38.054Z,17568
2023-03-28T15:55:15.577Z,22736
2023-03-28T15:56:55.902Z,14780
2023-03-28T15:58:36.211Z,19272
2023-03-28T16:00:16.508Z,15960
2023-03-28T16:01:56.915Z,14180
2023-03-28T16:03:37.435Z,13876
2023-03-28T16:05:17.661Z,13762
2023-03-28T16:06:58.048Z,14628
2023-03-28T16:08:38.452Z,16472
2023-03-28T16:10:18.802Z,19752
2023-03-28T16:11:59.245Z,19560
2023-03-28T16:13:39.603Z,19104
2023-03-28T16:15:19.996Z,17592
2023-03-28T16:17:00.436Z,19176
2023-03-28T16:18:40.902Z,18656
2023-03-28T16:20:21.314Z,17208
2023-03-28T16:22:08.703Z,16152
2023-03-28T16:23:42.067Z,14825
2023-03-28T16:25:22.401Z,13620
2023-03-28T16:27:02.788Z,13744
2023-03-28T16:28:43.336Z,13157
2023-03-28T16:30:23.626Z,13032
2023-03-28T16:32:04.010Z,13313
2023-03-28T16:33:44.506Z,11717
2023-03-28T16:35:24.743Z,9011
2023-03-28T16:37:05.070Z,8800
2023-03-28T16:38:45.461Z,7150
2023-03-28T16:40:25.786Z,6099
2023-03-28T16:42:06.033Z,5828
2023-03-28T16:43:46.331Z,5879
2023-03-28T16:45:26.643Z,5954
2023-03-28T16:47:06.944Z,6011
2023-03-28T16:48:47.233Z,5843
2023-03-28T16:50:27.533Z,5547
2023-03-28T16:52:08.001Z,5493
2023-03-28T16:53:48.230Z,5591
2023-03-28T16:55:28.676Z,5644
2023-03-28T16:57:12.333Z,5374
2023-03-28T16:58:49.545Z,5074
2023-03-28T17:00:29.857Z,4864
2023-03-28T17:02:10.203Z,4579
2023-03-28T17:03:50.680Z,4174
2023-03-28T17:05:34.064Z,3693
2023-03-28T17:07:11.401Z,3216
2023-03-28T17:08:51.856Z,2786
2023-03-28T17:10:32.269Z,2569
2023-03-28T17:12:12.618Z,2409
2023-03-28T17:13:53.055Z,2169
2023-03-28T17:15:33.534Z,2041
2023-03-28T17:17:13.905Z,1924
2023-03-28T17:18:54.155Z,1880
2023-03-28T17:20:34.532Z,1740
2023-03-28T17:22:14.904Z,1547
2023-03-28T17:23:55.286Z,1450
2023-03-28T17:25:48.161Z,1304
2023-03-28T17:27:16.093Z,1102
2023-03-28T17:28:56.400Z,964
2023-03-28T17:30:36.809Z,876
2023-03-28T17:32:17.222Z,791
2023-03-28T17:33:57.550Z,705
2023-03-28T17:35:37.905Z,635
2023-03-28T17:37:18.287Z,566
2023-03-28T17:38:58.701Z,514
2023-03-28T17:40:39.113Z,466
2023-03-28T17:42:19.419Z,411
2023-03-28T17:44:02.917Z,360
2023-03-28T17:45:40.375Z,312
2023-03-28T17:47:20.747Z,265
2023-03-28T17:49:01.181Z,225
2023-03-28T17:50:41.537Z,190
2023-03-28T17:52:21.848Z,161
2023-03-28T17:54:02.335Z,134
2023-03-28T17:55:42.700Z,110
2023-03-28T17:57:23.326Z,89
2023-03-28T17:59:03.623Z,70
2023-03-28T18:00:43.992Z,55
2023-03-28T18:02:24.460Z,44
2023-03-28T18:04:04.839Z,33
2023-03-28T18:05:45.027Z,26
2023-03-28T18:07:25.341Z,19
2023-03-28T18:09:05.723Z,14
2023-03-28T18:10:46.124Z,10
2023-03-28T18:12:26.475Z,8
2023-03-28T18:14:06.878Z,5
2023-03-28T18:15:47.227Z,4
2023-03-28T18:17:27.624Z,3
2023-03-28T18:19:08.051Z,2
2023-03-28T18:20:48.363Z,1
2023-03-28T18:22:28.781Z,1
2023-03-28T18:24:09.181Z,1
2023-03-28T18:25:49.572Z,1
2023-03-28T18:27:29.950Z,1
2023-03-28T18:29:10.285Z,0
2023-03-28T18:30:50.679Z,0
2023-03-28T18:32:31.157Z,0
2023-03-28T18:34:11.608Z,0
2023-03-28T18:35:52.076Z,0
2023-03-28T18:37:32.406Z,0
2023-03-28T18:39:12.795Z,0
2023-03-28T18:40:53.222Z,0
2023-03-28T18:42:33.608Z,0
2023-03-28T18:44:14.028Z,0
2023-03-28T18:45:54.450Z,0
2023-03-28T18:47:34.748Z,0
2023-03-28T18:49:15.102Z,0
2023-03-28T18:50:55.470Z,0
2023-03-28T18:52:35.868Z,0
2023-03-28T18:54:16.280Z,0
2023-03-28T18:55:56.723Z,0
2023-03-28T18:57:37.105Z,0
2023-03-28T18:59:20.645Z,0
2023-03-28T19:00:57.987Z,0
2023-03-28T19:02:38.472Z,0
2023-03-28T19:04:18.828Z,0
2023-03-28T19:05:59.346Z,0
2023-03-28T19:07:39.475Z,0
2023-03-28T19:09:19.907Z,0
2023-03-28T19:11:00.281Z,0
2023-03-28T19:12:40.612Z,0
2023-03-28T19:14:21.050Z,0
2023-03-28T19:16:01.591Z,0
2023-03-28T19:17:41.909Z,0
2023-03-28T19:19:22.342Z,0
2023-03-28T19:21:02.718Z,0
2023-03-28T19:22:43.130Z,0
2023-03-28T19:24:23.570Z,0
2023-03-28T19:26:04.026Z,0
2023-03-28T19:27:44.282Z,0
2023-03-28T19:29:24.633Z,0
2023-03-28T19:31:05.301Z,0
2023-03-28T19:32:45.572Z,0
2023-03-28T19:34:25.947Z,0
2023-03-28T19:36:06.963Z,0
2023-03-28T19:37:46.652Z,0
2023-03-28T19:39:26.942Z,0
2023-03-28T19:41:09.314Z,0
2023-03-28T19:42:47.803Z,0
2023-03-28T19:44:28.213Z,0
2023-03-28T19:46:15.703Z,0
2023-03-28T19:47:49.002Z,0
2023-03-28T19:49:29.250Z,0
2023-03-28T19:51:09.669Z,0
2023-03-28T19:52:50.110Z,0
2023-03-28T19:54:33.491Z,0
2023-03-28T19:56:10.816Z,0
2023-03-28T19:57:54.264Z,0
2023-03-28T19:59:31.583Z,0
2023-03-28T20:01:12.074Z,0
2023-03-28T20:02:52.433Z,0
2023-03-28T20:04:32.939Z,0
2023-03-28T20:06:13.350Z,0
2023-03-28T20:07:53.677Z,0
2023-03-28T20:09:35.526Z,0
2023-03-28T20:11:14.387Z,0
2023-03-28T20:12:54.761Z,0
2023-03-28T20:14:35.125Z,0
2023-03-28T20:16:15.643Z,0
2023-03-28T20:17:56.043Z,0
2023-03-28T20:19:36.332Z,0
2023-03-28T20:21:16.789Z,0
2023-03-28T20:22:57.119Z,0
2023-03-28T20:24:37.519Z,0
2023-03-28T20:26:17.902Z,0
2023-03-28T20:27:58.270Z,0
2023-03-28T20:29:38.579Z,0
2023-03-28T20:31:19.053Z,0
2023-03-28T20:32:59.353Z,0
2023-03-28T20:34:39.645Z,0
2023-03-28T20:36:20.121Z,0
2023-03-28T20:38:00.336Z,0
2023-03-28T20:39:40.719Z,0
2023-03-28T20:41:21.147Z,0
2023-03-28T20:43:01.526Z,0
2023-03-28T20:44:41.950Z,0
2023-03-28T20:46:22.400Z,0
2023-03-28T20:48:02.755Z,0
2023-03-28T20:49:43.120Z,0
2023-03-28T20:51:23.695Z,0
2023-03-28T20:53:03.826Z,0
2023-03-28T20:54:44.205Z,0
2023-03-28T20:56:24.609Z,0
2023-03-28T20:58:04.999Z,0
2023-03-28T20:59:45.418Z,0
2023-03-28T21:01:25.834Z,0
2023-03-28T21:03:06.284Z,0
2023-03-28T21:04:46.622Z,0
2023-03-28T21:06:26.979Z,0
2023-03-28T21:08:07.302Z,0
2023-03-28T21:09:47.588Z,0
2023-03-28T21:11:28.007Z,0
2023-03-28T21:13:08.416Z,0
2023-03-28T21:14:48.872Z,0
2023-03-28T21:16:29.317Z,0
2023-03-28T21:18:09.736Z,0
2023-03-28T21:19:49.947Z,0
2023-03-28T21:21:30.330Z,0
2023-03-28T21:23:10.660Z,0
2023-03-28T21:24:51.070Z,0
2023-03-28T21:26:31.590Z,0
2023-03-28T21:28:11.866Z,0
2023-03-28T21:29:52.309Z,0
2023-03-28T21:31:32.736Z,0
2023-03-28T21:33:13.171Z,0
2023-03-28T21:34:53.513Z,0
2023-03-28T21:36:33.932Z,0
2023-03-28T21:38:14.310Z,0
2023-03-28T21:39:54.715Z,0
2023-03-28T21:41:35.044Z,0
2023-03-28T21:43:15.403Z,0
2023-03-28T21:44:55.806Z,0
2023-03-28T21:46:36.326Z,0
2023-03-28T21:48:16.543Z,0
2023-03-28T21:49:57.000Z,0
2023-03-28T21:51:37.421Z,0
2023-03-28T21:53:17.688Z,0
2023-03-28T21:54:58.101Z,0
2023-03-28T21:56:38.502Z,0
2023-03-28T21:58:18.859Z,0
2023-03-28T21:59:59.201Z,0
2023-03-28T22:01:39.558Z,0
2023-03-28T22:03:20.129Z,0
2023-03-28T22:05:00.399Z,0
2023-03-28T22:06:40.793Z,0
2023-03-28T22:08:21.163Z,0
2023-03-28T22:10:01.714Z,0
2023-03-28T22:11:41.909Z,0
2023-03-28T22:13:22.347Z,0
2023-03-28T22:15:02.637Z,0
2023-03-28T22:16:42.975Z,0
2023-03-28T22:18:23.355Z,0
2023-03-28T22:20:03.668Z,0
2023-03-28T22:21:44.017Z,0
2023-03-28T22:23:24.465Z,0
2023-03-28T22:25:04.801Z,0
2023-03-28T22:26:45.279Z,0
2023-03-28T22:28:25.693Z,0
2023-03-28T22:30:05.947Z,0
2023-03-28T22:31:46.354Z,0
2023-03-28T22:33:26.729Z,0
2023-03-28T22:35:07.111Z,0
2023-03-28T22:36:47.503Z,0
2023-03-28T22:38:27.911Z,0
2023-03-28T22:40:08.316Z,0
2023-03-28T22:41:48.678Z,0
2023-03-28T22:43:29.030Z,0
2023-03-28T22:45:09.430Z,0
2023-03-28T22:46:49.799Z,0
2023-03-28T22:48:30.229Z,0
2023-03-28T22:50:10.661Z,0
2023-03-28T22:51:51.049Z,0
2023-03-28T22:53:31.477Z,0
2023-03-28T22:55:11.870Z,0
2023-03-28T22:56:52.421Z,0
2023-03-28T22:58:32.565Z,0